sensor_id;sensor_type;location;lat;lon;timestamp;P1;durP1;ratioP1;P2;durP2;ratioP2
48534;SDS011;34323;52.022;5.686;2023-03-23T00:04:54;7.93;;;3.67;;
48534;SDS011;34323;52.022;5.686;2023-03-23T00:07:55;12.23;;;3.25;;
48534;SDS011;34323;52.022;5.686;2023-03-23T00:13:52;7.60;;;3.30;;
48534;SDS011;34323;52.022;5.686;2023-03-23T00:16:31;7.82;;;3.25;;
48534;SDS011;34323;52.022;5.686;2023-03-23T00:19:42;6.35;;;3.10;;
48534;SDS011;34323;52.022;5.686;2023-03-23T00:22:49;4.00;;;2.70;;
48534;SDS011;34323;52.022;5.686;2023-03-23T00:25:56;5.53;;;2.95;;
48534;SDS011;34323;52.022;5.686;2023-03-23T00:28:56;4.80;;;3.00;;
48534;SDS011;34323;52.022;5.686;2023-03-23T00:32:28;5.03;;;3.05;;
48534;SDS011;34323;52.022;5.686;2023-03-23T00:35:08;6.38;;;3.17;;
48534;SDS011;34323;52.022;5.686;2023-03-23T00:38:01;7.18;;;3.70;;
48534;SDS011;34323;52.022;5.686;2023-03-23T00:40:51;6.28;;;3.72;;
48534;SDS011;34323;52.022;5.686;2023-03-23T00:43:50;7.20;;;3.72;;
48534;SDS011;34323;52.022;5.686;2023-03-23T00:47:14;5.82;;;3.33;;
48534;SDS011;34323;52.022;5.686;2023-03-23T00:53:53;6.78;;;3.03;;
48534;SDS011;34323;52.022;5.686;2023-03-23T01:03:08;9.10;;;3.53;;
48534;SDS011;34323;52.022;5.686;2023-03-23T01:06:11;10.85;;;4.28;;
48534;SDS011;34323;52.022;5.686;2023-03-23T01:09:07;8.75;;;4.22;;
48534;SDS011;34323;52.022;5.686;2023-03-23T01:11:55;8.43;;;3.78;;
48534;SDS011;34323;52.022;5.686;2023-03-23T01:14:56;6.65;;;3.20;;
48534;SDS011;34323;52.022;5.686;2023-03-23T01:17:34;6.05;;;3.38;;
48534;SDS011;34323;52.022;5.686;2023-03-23T01:23:34;5.57;;;2.90;;
48534;SDS011;34323;52.022;5.686;2023-03-23T01:26:23;6.22;;;3.00;;
48534;SDS011;34323;52.022;5.686;2023-03-23T01:29:13;3.50;;;2.78;;
48534;SDS011;34323;52.022;5.686;2023-03-23T01:32:16;5.72;;;3.22;;
48534;SDS011;34323;52.022;5.686;2023-03-23T01:35:11;4.88;;;2.63;;
48534;SDS011;34323;52.022;5.686;2023-03-23T01:38:08;7.70;;;3.70;;
48534;SDS011;34323;52.022;5.686;2023-03-23T01:41:06;6.10;;;3.05;;
48534;SDS011;34323;52.022;5.686;2023-03-23T01:50:26;6.80;;;3.08;;
48534;SDS011;34323;52.022;5.686;2023-03-23T01:53:19;5.43;;;2.85;;
48534;SDS011;34323;52.022;5.686;2023-03-23T01:58:23;4.68;;;2.83;;
48534;SDS011;34323;52.022;5.686;2023-03-23T02:00:56;5.75;;;3.20;;
48534;SDS011;34323;52.022;5.686;2023-03-23T02:03:42;5.07;;;2.63;;
48534;SDS011;34323;52.022;5.686;2023-03-23T02:06:17;7.88;;;3.45;;
48534;SDS011;34323;52.022;5.686;2023-03-23T02:09:05;5.97;;;3.30;;
48534;SDS011;34323;52.022;5.686;2023-03-23T02:11:34;4.97;;;2.80;;
48534;SDS011;34323;52.022;5.686;2023-03-23T02:14:11;6.78;;;3.10;;
48534;SDS011;34323;52.022;5.686;2023-03-23T02:17:02;7.43;;;3.30;;
48534;SDS011;34323;52.022;5.686;2023-03-23T02:25:55;6.10;;;3.13;;
48534;SDS011;34323;52.022;5.686;2023-03-23T02:29:18;9.45;;;3.10;;
48534;SDS011;34323;52.022;5.686;2023-03-23T02:37:27;4.13;;;3.05;;
48534;SDS011;34323;52.022;5.686;2023-03-23T02:40:14;6.38;;;2.78;;
48534;SDS011;34323;52.022;5.686;2023-03-23T02:42:47;4.57;;;2.90;;
48534;SDS011;34323;52.022;5.686;2023-03-23T02:45:27;5.63;;;3.33;;
48534;SDS011;34323;52.022;5.686;2023-03-23T02:48:03;7.63;;;3.53;;
48534;SDS011;34323;52.022;5.686;2023-03-23T02:50:35;6.47;;;3.63;;
48534;SDS011;34323;52.022;5.686;2023-03-23T02:56:25;7.15;;;4.07;;
48534;SDS011;34323;52.022;5.686;2023-03-23T02:59:13;5.95;;;3.80;;
48534;SDS011;34323;52.022;5.686;2023-03-23T03:05:10;7.57;;;3.45;;
48534;SDS011;34323;52.022;5.686;2023-03-23T03:14:28;6.05;;;3.60;;
48534;SDS011;34323;52.022;5.686;2023-03-23T03:21:27;6.55;;;3.60;;
48534;SDS011;34323;52.022;5.686;2023-03-23T03:24:03;6.72;;;3.28;;
48534;SDS011;34323;52.022;5.686;2023-03-23T03:26:51;7.97;;;3.33;;
48534;SDS011;34323;52.022;5.686;2023-03-23T03:42:10;6.65;;;2.28;;
48534;SDS011;34323;52.022;5.686;2023-03-23T03:44:53;5.50;;;2.92;;
48534;SDS011;34323;52.022;5.686;2023-03-23T03:47:36;4.57;;;2.70;;
48534;SDS011;34323;52.022;5.686;2023-03-23T03:50:40;4.75;;;2.35;;
48534;SDS011;34323;52.022;5.686;2023-03-23T03:53:32;14.45;;;3.25;;
48534;SDS011;34323;52.022;5.686;2023-03-23T03:59:04;5.15;;;2.80;;
48534;SDS011;34323;52.022;5.686;2023-03-23T04:02:35;4.65;;;2.80;;
48534;SDS011;34323;52.022;5.686;2023-03-23T04:08:18;7.80;;;2.97;;
48534;SDS011;34323;52.022;5.686;2023-03-23T04:10:50;5.13;;;2.47;;
48534;SDS011;34323;52.022;5.686;2023-03-23T04:13:26;5.93;;;2.63;;
48534;SDS011;34323;52.022;5.686;2023-03-23T04:16:07;5.53;;;2.95;;
48534;SDS011;34323;52.022;5.686;2023-03-23T04:19:00;6.65;;;3.03;;
48534;SDS011;34323;52.022;5.686;2023-03-23T04:32:35;4.90;;;2.63;;
48534;SDS011;34323;52.022;5.686;2023-03-23T04:35:39;5.70;;;2.95;;
48534;SDS011;34323;52.022;5.686;2023-03-23T04:38:35;3.85;;;2.20;;
48534;SDS011;34323;52.022;5.686;2023-03-23T04:41:14;5.78;;;2.30;;
48534;SDS011;34323;52.022;5.686;2023-03-23T04:43:44;5.20;;;2.47;;
48534;SDS011;34323;52.022;5.686;2023-03-23T04:54:16;3.58;;;1.65;;
48534;SDS011;34323;52.022;5.686;2023-03-23T04:57:15;8.13;;;2.40;;
48534;SDS011;34323;52.022;5.686;2023-03-23T05:00:21;7.50;;;2.35;;
48534;SDS011;34323;52.022;5.686;2023-03-23T05:04:38;6.35;;;2.40;;
48534;SDS011;34323;52.022;5.686;2023-03-23T05:06:36;6.68;;;2.47;;
48534;SDS011;34323;52.022;5.686;2023-03-23T05:12:18;9.60;;;2.28;;
48534;SDS011;34323;52.022;5.686;2023-03-23T05:15:02;9.25;;;2.03;;
48534;SDS011;34323;52.022;5.686;2023-03-23T05:17:46;6.65;;;1.80;;
48534;SDS011;34323;52.022;5.686;2023-03-23T05:20:30;12.25;;;3.25;;
48534;SDS011;34323;52.022;5.686;2023-03-23T05:23:12;9.27;;;1.88;;
48534;SDS011;34323;52.022;5.686;2023-03-23T05:26:08;9.18;;;2.30;;
48534;SDS011;34323;52.022;5.686;2023-03-23T05:29:28;9.40;;;2.10;;
48534;SDS011;34323;52.022;5.686;2023-03-23T05:32:08;7.95;;;2.50;;
48534;SDS011;34323;52.022;5.686;2023-03-23T05:34:37;9.00;;;2.80;;
48534;SDS011;34323;52.022;5.686;2023-03-23T05:37:23;8.38;;;2.00;;
48534;SDS011;34323;52.022;5.686;2023-03-23T05:39:54;11.75;;;2.42;;
48534;SDS011;34323;52.022;5.686;2023-03-23T05:42:27;9.00;;;2.60;;
48534;SDS011;34323;52.022;5.686;2023-03-23T05:45:16;11.07;;;1.98;;
48534;SDS011;34323;52.022;5.686;2023-03-23T05:51:04;9.93;;;2.47;;
48534;SDS011;34323;52.022;5.686;2023-03-23T05:54:00;10.57;;;2.17;;
48534;SDS011;34323;52.022;5.686;2023-03-23T06:00:03;9.18;;;1.90;;
48534;SDS011;34323;52.022;5.686;2023-03-23T06:03:10;8.27;;;3.08;;
48534;SDS011;34323;52.022;5.686;2023-03-23T06:06:03;7.85;;;1.80;;
48534;SDS011;34323;52.022;5.686;2023-03-23T06:09:12;6.50;;;1.80;;
48534;SDS011;34323;52.022;5.686;2023-03-23T06:18:45;10.98;;;2.45;;
48534;SDS011;34323;52.022;5.686;2023-03-23T06:21:28;7.57;;;1.90;;
48534;SDS011;34323;52.022;5.686;2023-03-23T06:24:45;7.40;;;1.80;;
48534;SDS011;34323;52.022;5.686;2023-03-23T06:27:25;6.65;;;1.40;;
48534;SDS011;34323;52.022;5.686;2023-03-23T06:33:32;8.07;;;2.25;;
48534;SDS011;34323;52.022;5.686;2023-03-23T06:39:14;3.22;;;1.27;;
48534;SDS011;34323;52.022;5.686;2023-03-23T06:41:57;14.85;;;2.30;;
48534;SDS011;34323;52.022;5.686;2023-03-23T06:47:58;8.98;;;1.67;;
48534;SDS011;34323;52.022;5.686;2023-03-23T06:50:48;4.80;;;1.50;;
48534;SDS011;34323;52.022;5.686;2023-03-23T06:53:52;8.98;;;1.98;;
48534;SDS011;34323;52.022;5.686;2023-03-23T06:56:24;11.07;;;2.08;;
48534;SDS011;34323;52.022;5.686;2023-03-23T06:59:15;8.82;;;2.50;;
48534;SDS011;34323;52.022;5.686;2023-03-23T07:08:40;7.35;;;2.03;;
48534;SDS011;34323;52.022;5.686;2023-03-23T07:22:37;9.85;;;2.42;;
48534;SDS011;34323;52.022;5.686;2023-03-23T07:25:51;7.35;;;2.00;;
48534;SDS011;34323;52.022;5.686;2023-03-23T07:34:58;7.38;;;2.08;;
48534;SDS011;34323;52.022;5.686;2023-03-23T07:51:38;13.68;;;2.38;;
48534;SDS011;34323;52.022;5.686;2023-03-23T07:54:36;7.38;;;2.25;;
48534;SDS011;34323;52.022;5.686;2023-03-23T08:01:17;5.57;;;1.98;;
48534;SDS011;34323;52.022;5.686;2023-03-23T08:10:58;10.32;;;2.60;;
48534;SDS011;34323;52.022;5.686;2023-03-23T08:14:03;13.27;;;3.15;;
48534;SDS011;34323;52.022;5.686;2023-03-23T08:33:37;7.32;;;3.22;;
48534;SDS011;34323;52.022;5.686;2023-03-23T08:37:47;13.25;;;3.00;;
48534;SDS011;34323;52.022;5.686;2023-03-23T08:40:38;12.40;;;2.80;;
48534;SDS011;34323;52.022;5.686;2023-03-23T09:01:07;4.30;;;2.17;;
48534;SDS011;34323;52.022;5.686;2023-03-23T09:17:47;4.00;;;1.83;;
48534;SDS011;34323;52.022;5.686;2023-03-23T09:27:38;5.90;;;1.88;;
48534;SDS011;34323;52.022;5.686;2023-03-23T09:37:44;4.57;;;1.88;;
48534;SDS011;34323;52.022;5.686;2023-03-23T09:51:38;6.00;;;1.85;;
48534;SDS011;34323;52.022;5.686;2023-03-23T10:42:03;9.10;;;2.10;;
48534;SDS011;34323;52.022;5.686;2023-03-23T10:58:37;8.27;;;1.70;;
48534;SDS011;34323;52.022;5.686;2023-03-23T11:22:56;7.25;;;2.17;;
48534;SDS011;34323;52.022;5.686;2023-03-23T11:46:26;6.90;;;1.80;;
48534;SDS011;34323;52.022;5.686;2023-03-23T11:57:40;8.15;;;1.77;;
48534;SDS011;34323;52.022;5.686;2023-03-23T12:42:13;5.22;;;1.48;;
48534;SDS011;34323;52.022;5.686;2023-03-23T13:05:52;5.32;;;2.13;;
48534;SDS011;34323;52.022;5.686;2023-03-23T13:26:49;9.48;;;2.13;;
48534;SDS011;34323;52.022;5.686;2023-03-23T13:29:35;3.22;;;0.95;;
48534;SDS011;34323;52.022;5.686;2023-03-23T13:32:48;4.20;;;1.05;;
48534;SDS011;34323;52.022;5.686;2023-03-23T13:38:58;3.88;;;1.15;;
48534;SDS011;34323;52.022;5.686;2023-03-23T13:42:16;4.78;;;1.20;;
48534;SDS011;34323;52.022;5.686;2023-03-23T13:55:38;2.55;;;0.80;;
48534;SDS011;34323;52.022;5.686;2023-03-23T14:15:55;7.47;;;2.00;;
48534;SDS011;34323;52.022;5.686;2023-03-23T14:22:15;6.22;;;1.73;;
48534;SDS011;34323;52.022;5.686;2023-03-23T14:45:29;5.07;;;1.38;;
48534;SDS011;34323;52.022;5.686;2023-03-23T14:48:44;4.68;;;1.35;;
48534;SDS011;34323;52.022;5.686;2023-03-23T15:01:47;5.53;;;1.35;;
48534;SDS011;34323;52.022;5.686;2023-03-23T15:04:25;7.43;;;1.63;;
48534;SDS011;34323;52.022;5.686;2023-03-23T15:07:25;8.55;;;1.83;;
48534;SDS011;34323;52.022;5.686;2023-03-23T15:10:39;4.72;;;1.75;;
48534;SDS011;34323;52.022;5.686;2023-03-23T15:13:47;7.13;;;1.75;;
48534;SDS011;34323;52.022;5.686;2023-03-23T15:16:30;11.40;;;2.33;;
48534;SDS011;34323;52.022;5.686;2023-03-23T19:52:36;8.85;;;3.05;;
48534;SDS011;34323;52.022;5.686;2023-03-23T19:55:02;10.13;;;2.75;;
48534;SDS011;34323;52.022;5.686;2023-03-23T19:57:28;10.55;;;3.03;;
48534;SDS011;34323;52.022;5.686;2023-03-23T19:59:54;12.07;;;2.78;;
48534;SDS011;34323;52.022;5.686;2023-03-23T20:02:22;8.23;;;3.15;;
48534;SDS011;34323;52.022;5.686;2023-03-23T20:04:47;10.38;;;3.03;;
48534;SDS011;34323;52.022;5.686;2023-03-23T20:07:13;9.25;;;2.63;;
48534;SDS011;34323;52.022;5.686;2023-03-23T20:09:39;9.30;;;2.70;;
48534;SDS011;34323;52.022;5.686;2023-03-23T20:12:05;6.85;;;2.60;;
48534;SDS011;34323;52.022;5.686;2023-03-23T20:14:32;7.55;;;2.80;;
48534;SDS011;34323;52.022;5.686;2023-03-23T20:16:58;10.07;;;3.45;;
48534;SDS011;34323;52.022;5.686;2023-03-23T20:19:24;7.10;;;2.45;;
48534;SDS011;34323;52.022;5.686;2023-03-23T20:21:50;10.07;;;3.15;;
48534;SDS011;34323;52.022;5.686;2023-03-23T20:24:15;10.50;;;2.60;;
48534;SDS011;34323;52.022;5.686;2023-03-23T20:26:41;8.82;;;2.97;;
48534;SDS011;34323;52.022;5.686;2023-03-23T20:29:07;11.52;;;3.17;;
48534;SDS011;34323;52.022;5.686;2023-03-23T20:31:35;11.55;;;3.20;;
48534;SDS011;34323;52.022;5.686;2023-03-23T20:34:04;13.02;;;3.25;;
48534;SDS011;34323;52.022;5.686;2023-03-23T20:36:33;12.38;;;2.80;;
48534;SDS011;34323;52.022;5.686;2023-03-23T20:39:06;11.68;;;2.80;;
48534;SDS011;34323;52.022;5.686;2023-03-23T20:41:45;8.15;;;2.92;;
48534;SDS011;34323;52.022;5.686;2023-03-23T20:44:13;10.45;;;2.90;;
48534;SDS011;34323;52.022;5.686;2023-03-23T20:46:40;10.93;;;3.13;;
48534;SDS011;34323;52.022;5.686;2023-03-23T20:49:06;10.57;;;2.95;;
48534;SDS011;34323;52.022;5.686;2023-03-23T20:51:33;9.85;;;2.70;;
48534;SDS011;34323;52.022;5.686;2023-03-23T20:53:59;11.75;;;3.40;;
48534;SDS011;34323;52.022;5.686;2023-03-23T20:56:26;6.55;;;2.67;;
48534;SDS011;34323;52.022;5.686;2023-03-23T20:58:52;12.38;;;2.72;;
48534;SDS011;34323;52.022;5.686;2023-03-23T21:01:18;10.23;;;2.55;;
48534;SDS011;34323;52.022;5.686;2023-03-23T21:03:46;11.88;;;3.28;;
48534;SDS011;34323;52.022;5.686;2023-03-23T21:06:11;9.68;;;2.97;;
48534;SDS011;34323;52.022;5.686;2023-03-23T21:08:39;6.00;;;2.92;;
48534;SDS011;34323;52.022;5.686;2023-03-23T21:11:05;15.13;;;4.03;;
48534;SDS011;34323;52.022;5.686;2023-03-23T21:13:32;10.32;;;3.28;;
48534;SDS011;34323;52.022;5.686;2023-03-23T21:16:02;15.07;;;3.67;;
48534;SDS011;34323;52.022;5.686;2023-03-23T21:18:29;9.88;;;3.40;;
48534;SDS011;34323;52.022;5.686;2023-03-23T21:20:55;8.52;;;2.80;;
48534;SDS011;34323;52.022;5.686;2023-03-23T21:23:21;7.20;;;3.00;;
48534;SDS011;34323;52.022;5.686;2023-03-23T21:25:50;9.80;;;2.88;;
48534;SDS011;34323;52.022;5.686;2023-03-23T21:28:17;12.32;;;4.03;;
48534;SDS011;34323;52.022;5.686;2023-03-23T21:30:43;12.85;;;3.10;;
48534;SDS011;34323;52.022;5.686;2023-03-23T21:33:09;9.65;;;3.10;;
48534;SDS011;34323;52.022;5.686;2023-03-23T21:35:38;12.30;;;3.67;;
48534;SDS011;34323;52.022;5.686;2023-03-23T21:38:05;8.32;;;3.30;;
48534;SDS011;34323;52.022;5.686;2023-03-23T21:40:38;7.93;;;3.35;;
48534;SDS011;34323;52.022;5.686;2023-03-23T21:43:04;10.02;;;3.30;;
48534;SDS011;34323;52.022;5.686;2023-03-23T21:45:30;8.82;;;3.35;;
48534;SDS011;34323;52.022;5.686;2023-03-23T21:47:55;12.30;;;3.80;;
48534;SDS011;34323;52.022;5.686;2023-03-23T21:50:22;9.88;;;3.17;;
48534;SDS011;34323;52.022;5.686;2023-03-23T21:52:49;15.00;;;4.07;;
48534;SDS011;34323;52.022;5.686;2023-03-23T21:55:15;5.55;;;3.08;;
48534;SDS011;34323;52.022;5.686;2023-03-23T21:57:40;10.35;;;3.35;;
48534;SDS011;34323;52.022;5.686;2023-03-23T22:00:07;9.73;;;3.42;;
48534;SDS011;34323;52.022;5.686;2023-03-23T22:02:38;8.25;;;3.38;;
48534;SDS011;34323;52.022;5.686;2023-03-23T22:05:04;7.50;;;3.58;;
48534;SDS011;34323;52.022;5.686;2023-03-23T22:07:30;5.63;;;2.83;;
48534;SDS011;34323;52.022;5.686;2023-03-23T22:09:57;7.88;;;3.40;;
48534;SDS011;34323;52.022;5.686;2023-03-23T22:12:23;8.40;;;2.67;;
48534;SDS011;34323;52.022;5.686;2023-03-23T22:14:49;6.40;;;3.08;;
48534;SDS011;34323;52.022;5.686;2023-03-23T22:17:15;6.72;;;2.67;;
48534;SDS011;34323;52.022;5.686;2023-03-23T22:19:40;10.70;;;3.38;;
48534;SDS011;34323;52.022;5.686;2023-03-23T22:22:06;9.98;;;3.30;;
48534;SDS011;34323;52.022;5.686;2023-03-23T22:24:32;6.88;;;2.60;;
48534;SDS011;34323;52.022;5.686;2023-03-23T22:26:57;10.80;;;3.25;;
48534;SDS011;34323;52.022;5.686;2023-03-23T22:29:24;9.13;;;2.97;;
48534;SDS011;34323;52.022;5.686;2023-03-23T22:31:50;6.88;;;2.65;;
48534;SDS011;34323;52.022;5.686;2023-03-23T22:34:16;9.25;;;2.72;;
48534;SDS011;34323;52.022;5.686;2023-03-23T22:36:42;10.38;;;2.78;;
48534;SDS011;34323;52.022;5.686;2023-03-23T22:39:08;7.93;;;2.95;;
48534;SDS011;34323;52.022;5.686;2023-03-23T22:41:35;4.85;;;2.90;;
48534;SDS011;34323;52.022;5.686;2023-03-23T22:44:04;9.35;;;3.15;;
48534;SDS011;34323;52.022;5.686;2023-03-23T22:46:30;9.95;;;2.90;;
48534;SDS011;34323;52.022;5.686;2023-03-23T22:48:56;9.30;;;3.53;;
48534;SDS011;34323;52.022;5.686;2023-03-23T22:51:21;9.05;;;3.13;;
48534;SDS011;34323;52.022;5.686;2023-03-23T22:53:48;10.18;;;3.92;;
48534;SDS011;34323;52.022;5.686;2023-03-23T22:56:14;12.65;;;3.65;;
48534;SDS011;34323;52.022;5.686;2023-03-23T22:58:40;5.97;;;2.70;;
48534;SDS011;34323;52.022;5.686;2023-03-23T23:01:07;9.93;;;2.50;;
48534;SDS011;34323;52.022;5.686;2023-03-23T23:03:37;8.50;;;2.58;;
48534;SDS011;34323;52.022;5.686;2023-03-23T23:06:04;8.57;;;2.90;;
48534;SDS011;34323;52.022;5.686;2023-03-23T23:08:30;5.90;;;2.83;;
48534;SDS011;34323;52.022;5.686;2023-03-23T23:10:57;8.60;;;2.67;;
48534;SDS011;34323;52.022;5.686;2023-03-23T23:13:24;6.75;;;3.03;;
48534;SDS011;34323;52.022;5.686;2023-03-23T23:15:52;3.97;;;2.25;;
48534;SDS011;34323;52.022;5.686;2023-03-23T23:18:19;12.07;;;2.83;;
48534;SDS011;34323;52.022;5.686;2023-03-23T23:20:49;7.47;;;3.47;;
48534;SDS011;34323;52.022;5.686;2023-03-23T23:23:16;4.97;;;2.80;;
48534;SDS011;34323;52.022;5.686;2023-03-23T23:25:42;12.35;;;3.35;;
48534;SDS011;34323;52.022;5.686;2023-03-23T23:28:08;9.02;;;3.17;;
48534;SDS011;34323;52.022;5.686;2023-03-23T23:30:34;5.93;;;2.90;;
48534;SDS011;34323;52.022;5.686;2023-03-23T23:33:00;10.20;;;2.92;;
48534;SDS011;34323;52.022;5.686;2023-03-23T23:35:26;11.52;;;3.25;;
48534;SDS011;34323;52.022;5.686;2023-03-23T23:37:52;6.10;;;2.85;;
48534;SDS011;34323;52.022;5.686;2023-03-23T23:40:18;7.47;;;3.30;;
48534;SDS011;34323;52.022;5.686;2023-03-23T23:42:45;4.97;;;2.70;;
48534;SDS011;34323;52.022;5.686;2023-03-23T23:45:13;5.40;;;3.25;;
48534;SDS011;34323;52.022;5.686;2023-03-23T23:47:39;7.35;;;2.72;;
48534;SDS011;34323;52.022;5.686;2023-03-23T23:50:06;8.95;;;3.17;;
48534;SDS011;34323;52.022;5.686;2023-03-23T23:52:33;7.85;;;3.03;;
48534;SDS011;34323;52.022;5.686;2023-03-23T23:55:00;6.78;;;2.85;;
48534;SDS011;34323;52.022;5.686;2023-03-23T23:57:26;7.63;;;2.70;;
48534;SDS011;34323;52.022;5.686;2023-03-23T23:59:52;8.63;;;2.55;;
